Time,TemperatureF,DewpointF,PressureIn,WindDirection,WindDirectionDegrees,WindSpeedMPH,WindSpeedGustMPH,Humidity,HourlyPrecipIn,Conditions,Clouds,dailyrainin,SolarRadiationWatts/m^2,SoftwareType,DateUTC
2013-10-03 00:22:00,56.0,29.0,-100.00,WNW,301,6.0,15.0,36,0.00,,,0.00,1.000000,,2013-10-03 07:22:00,
2013-10-03 00:31:00,56.0,29.0,-100.00,WNW,301,6.0,15.0,36,0.00,,,0.00,1.000000,,2013-10-03 07:31:00,
2013-10-03 00:41:00,56.0,29.0,-100.00,WNW,301,6.0,15.0,36,0.00,,,0.00,1.000000,,2013-10-03 07:41:00,
2013-10-03 00:52:00,56.0,29.0,-100.00,WNW,301,6.0,15.0,36,0.00,,,0.00,1.000000,,2013-10-03 07:52:00,
2013-10-03 01:22:00,54.0,35.0,-100.00,WSW,256,8.0,19.0,49,0.00,,,0.00,1.000000,,2013-10-03 08:22:00,
2013-10-03 01:32:00,54.0,35.0,-100.00,WSW,256,8.0,19.0,49,0.00,,,0.00,1.000000,,2013-10-03 08:32:00,
2013-10-03 01:42:00,54.0,35.0,-100.00,WSW,256,8.0,19.0,49,0.00,,,0.00,1.000000,,2013-10-03 08:42:00,
2013-10-03 01:52:00,54.0,35.0,-100.00,WSW,256,8.0,19.0,49,0.00,,,0.00,1.000000,,2013-10-03 08:52:00,
2013-10-03 02:43:00,54.0,31.0,-100.00,WSW,242,6.0,16.0,41,0.00,,,0.00,1.000000,,2013-10-03 09:43:00,
2013-10-03 02:53:00,54.0,31.0,-100.00,WSW,242,6.0,16.0,41,0.00,,,0.00,1.000000,,2013-10-03 09:53:00,
2013-10-03 03:23:00,52.0,33.0,-100.00,SW,236,5.0,16.0,48,0.00,,,0.00,1.000000,,2013-10-03 10:23:00,
2013-10-03 03:33:00,52.0,33.0,-100.00,SW,236,5.0,16.0,48,0.00,,,0.00,1.000000,,2013-10-03 10:33:00,
2013-10-03 03:43:00,52.0,33.0,-100.00,SW,236,5.0,16.0,48,0.00,,,0.00,1.000000,,2013-10-03 10:43:00,
2013-10-03 03:52:00,52.0,33.0,-100.00,SW,236,5.0,16.0,48,0.00,,,0.00,1.000000,,2013-10-03 10:52:00,
2013-10-03 04:23:00,52.0,29.0,-100.00,West,261,5.0,15.0,41,0.00,,,0.00,1.000000,,2013-10-03 11:23:00,
2013-10-03 04:33:00,52.0,29.0,-100.00,West,261,5.0,15.0,41,0.00,,,0.00,1.000000,,2013-10-03 11:33:00,
2013-10-03 04:42:00,52.0,29.0,-100.00,West,261,5.0,15.0,41,0.00,,,0.00,1.000000,,2013-10-03 11:42:00,
2013-10-03 04:52:00,52.0,29.0,-100.00,West,261,5.0,15.0,41,0.00,,,0.00,1.000000,,2013-10-03 11:52:00,
2013-10-03 05:22:00,52.0,31.0,-100.00,WSW,255,7.0,21.0,45,0.00,,,0.00,1.000000,,2013-10-03 12:22:00,
2013-10-03 05:32:00,52.0,31.0,-100.00,WSW,255,7.0,21.0,45,0.00,,,0.00,1.000000,,2013-10-03 12:32:00,
2013-10-03 05:42:00,52.0,31.0,-100.00,WSW,255,7.0,21.0,45,0.00,,,0.00,1.000000,,2013-10-03 12:42:00,
2013-10-03 05:52:00,52.0,31.0,-100.00,WSW,255,7.0,21.0,45,0.00,,,0.00,1.000000,,2013-10-03 12:52:00,
2013-10-03 06:42:00,51.0,31.0,-100.00,NW,307,8.0,21.0,47,0.00,,,0.00,1.000000,,2013-10-03 13:42:00,
2013-10-03 06:52:00,51.0,31.0,-100.00,NW,307,8.0,21.0,47,0.00,,,0.00,1.000000,,2013-10-03 13:52:00,
2013-10-03 07:42:00,51.0,33.0,-100.00,West,261,4.0,19.0,49,0.00,,,0.00,2.000000,,2013-10-03 14:42:00,
2013-10-03 07:52:00,51.0,33.0,-100.00,West,261,4.0,19.0,49,0.00,,,0.00,2.000000,,2013-10-03 14:52:00,
2013-10-03 08:22:00,53.0,33.0,-100.00,WNW,296,8.0,16.0,46,0.00,,,0.00,125.000000,,2013-10-03 15:22:00,
2013-10-03 08:33:00,53.0,33.0,-100.00,WNW,296,8.0,16.0,46,0.00,,,0.00,125.000000,,2013-10-03 15:33:00,
2013-10-03 08:43:00,53.0,33.0,-100.00,WNW,296,8.0,16.0,46,0.00,,,0.00,125.000000,,2013-10-03 15:43:00,
2013-10-03 08:53:00,53.0,33.0,-100.00,WNW,296,8.0,16.0,46,0.00,,,0.00,125.000000,,2013-10-03 15:53:00,
2013-10-03 09:23:00,56.0,34.0,-100.00,SE,143,4.0,14.0,44,0.00,,,0.00,276.000000,,2013-10-03 16:23:00,
2013-10-03 09:33:00,56.0,34.0,-100.00,SE,143,4.0,14.0,44,0.00,,,0.00,276.000000,,2013-10-03 16:33:00,
2013-10-03 09:42:00,56.0,34.0,-100.00,SE,143,4.0,14.0,44,0.00,,,0.00,276.000000,,2013-10-03 16:42:00,
2013-10-03 09:53:00,56.0,34.0,-100.00,SE,143,4.0,14.0,44,0.00,,,0.00,276.000000,,2013-10-03 16:53:00,
2013-10-03 10:22:00,59.0,33.0,-100.00,WSW,243,6.0,14.0,37,0.00,,,0.00,423.000000,,2013-10-03 17:22:00,
2013-10-03 10:33:00,59.0,33.0,-100.00,WSW,243,6.0,14.0,37,0.00,,,0.00,423.000000,,2013-10-03 17:33:00,
2013-10-03 10:42:00,59.0,33.0,-100.00,WSW,243,6.0,14.0,37,0.00,,,0.00,423.000000,,2013-10-03 17:42:00,
2013-10-03 10:52:00,59.0,33.0,-100.00,WSW,243,6.0,14.0,37,0.00,,,0.00,423.000000,,2013-10-03 17:52:00,
2013-10-03 11:22:00,62.0,30.0,-100.00,SSW,196,11.0,17.0,30,0.00,,,0.00,766.000000,,2013-10-03 18:22:00,
2013-10-03 11:32:00,62.0,30.0,-100.00,SSW,196,11.0,17.0,30,0.00,,,0.00,766.000000,,2013-10-03 18:32:00,
2013-10-03 11:42:00,62.0,30.0,-100.00,SSW,196,11.0,17.0,30,0.00,,,0.00,766.000000,,2013-10-03 18:42:00,
2013-10-03 11:52:00,62.0,30.0,-100.00,SSW,196,11.0,17.0,30,0.00,,,0.00,766.000000,,2013-10-03 18:52:00,
2013-10-03 12:21:00,67.0,31.0,-100.00,SW,214,5.0,24.0,26,0.00,,,0.00,921.000000,,2013-10-03 19:21:00,
2013-10-03 12:32:00,67.0,31.0,-100.00,SW,214,5.0,24.0,26,0.00,,,0.00,921.000000,,2013-10-03 19:32:00,
2013-10-03 12:42:00,67.0,31.0,-100.00,SW,214,5.0,24.0,26,0.00,,,0.00,921.000000,,2013-10-03 19:42:00,
2013-10-03 12:52:00,67.0,31.0,-100.00,SW,214,5.0,24.0,26,0.00,,,0.00,921.000000,,2013-10-03 19:52:00,
2013-10-03 13:42:00,69.0,16.0,-100.00,WSW,247,6.0,15.0,13,0.00,,,0.00,984.000000,,2013-10-03 20:42:00,
2013-10-03 13:52:00,69.0,16.0,-100.00,WSW,247,6.0,15.0,13,0.00,,,0.00,984.000000,,2013-10-03 20:52:00,
2013-10-03 14:43:00,72.0,22.0,-100.00,WSW,237,5.0,13.0,15,0.00,,,0.00,965.000000,,2013-10-03 21:43:00,
2013-10-03 14:54:00,72.0,22.0,-100.00,WSW,237,5.0,13.0,15,0.00,,,0.00,965.000000,,2013-10-03 21:54:00,
2013-10-03 16:43:00,67.0,16.0,-100.00,WSW,239,5.0,16.0,14,0.00,,,0.00,712.000000,,2013-10-03 23:43:00,
2013-10-03 16:52:00,67.0,16.0,-100.00,WSW,239,5.0,16.0,14,0.00,,,0.00,712.000000,,2013-10-03 23:52:00,
2013-10-03 17:42:00,68.0,12.0,-100.00,NW,305,3.0,14.0,11,0.00,,,0.00,493.000000,,2013-10-04 00:42:00,
2013-10-03 17:52:00,68.0,12.0,-100.00,NW,305,3.0,14.0,11,0.00,,,0.00,493.000000,,2013-10-04 00:52:00,
2013-10-03 18:21:00,59.0,16.0,-100.00,NNE,28,3.0,9.0,18,0.00,,,0.00,199.000000,,2013-10-04 01:21:00,
2013-10-03 18:32:00,59.0,16.0,-100.00,NNE,28,3.0,9.0,18,0.00,,,0.00,199.000000,,2013-10-04 01:32:00,
2013-10-03 18:42:00,59.0,16.0,-100.00,NNE,28,3.0,9.0,18,0.00,,,0.00,199.000000,,2013-10-04 01:42:00,
2013-10-03 18:52:00,59.0,16.0,-100.00,NNE,28,3.0,9.0,18,0.00,,,0.00,199.000000,,2013-10-04 01:52:00,
2013-10-03 19:22:00,54.0,22.0,-100.00,NNW,333,8.0,14.0,29,0.00,,,0.00,10.000000,,2013-10-04 02:22:00,
2013-10-03 19:32:00,54.0,22.0,-100.00,NNW,333,8.0,14.0,29,0.00,,,0.00,10.000000,,2013-10-04 02:32:00,
2013-10-03 19:43:00,54.0,22.0,-100.00,NNW,333,8.0,14.0,29,0.00,,,0.00,10.000000,,2013-10-04 02:43:00,
2013-10-03 19:52:00,54.0,22.0,-100.00,NNW,333,8.0,14.0,29,0.00,,,0.00,10.000000,,2013-10-04 02:52:00,
2013-10-03 20:22:00,54.0,22.0,-100.00,WNW,290,5.0,11.0,29,0.00,,,0.00,1.000000,,2013-10-04 03:22:00,
2013-10-03 20:34:00,54.0,22.0,-100.00,WNW,290,5.0,11.0,29,0.00,,,0.00,1.000000,,2013-10-04 03:34:00,
2013-10-03 20:44:00,54.0,22.0,-100.00,WNW,290,5.0,11.0,29,0.00,,,0.00,1.000000,,2013-10-04 03:44:00,
2013-10-03 20:57:00,54.0,22.0,-100.00,WNW,290,5.0,11.0,29,0.00,,,0.00,1.000000,,2013-10-04 03:57:00,
2013-10-03 21:38:00,54.0,19.0,-100.00,NW,312,4.0,12.0,25,0.00,,,-99.99,1.000000,,2013-10-04 04:38:00,
2013-10-03 21:48:00,54.0,19.0,-100.00,NW,312,4.0,12.0,25,0.00,,,-99.99,1.000000,,2013-10-04 04:48:00,
2013-10-03 21:57:00,54.0,19.0,-100.00,NW,312,4.0,12.0,25,0.00,,,-99.99,1.000000,,2013-10-04 04:57:00,
2013-10-03 22:28:00,53.0,24.0,-100.00,North,349,7.0,10.0,32,0.00,,,0.00,1.000000,,2013-10-04 05:28:00,
2013-10-03 22:37:00,53.0,24.0,-100.00,North,349,7.0,10.0,32,0.00,,,0.00,1.000000,,2013-10-04 05:37:00,
2013-10-03 22:46:00,53.0,24.0,-100.00,North,349,7.0,10.0,32,0.00,,,0.00,1.000000,,2013-10-04 05:46:00,
2013-10-03 22:55:00,53.0,24.0,-100.00,North,349,7.0,10.0,32,0.00,,,0.00,1.000000,,2013-10-04 05:55:00,
2013-10-03 23:25:00,54.0,25.0,-100.00,North,351,10.0,17.0,32,0.00,,,0.00,1.000000,,2013-10-04 06:25:00,
2013-10-03 23:35:00,54.0,25.0,-100.00,North,351,10.0,17.0,32,0.00,,,0.00,1.000000,,2013-10-04 06:35:00,
2013-10-03 23:45:00,54.0,25.0,-100.00,North,351,10.0,17.0,32,0.00,,,0.00,1.000000,,2013-10-04 06:45:00,
2013-10-03 23:54:00,54.0,25.0,-100.00,North,351,10.0,17.0,32,0.00,,,0.00,1.000000,,2013-10-04 06:54:00,